sensor_id;sensor_type;location;lat;lon;timestamp;P1;durP1;ratioP1;P2;durP2;ratioP2
46210;SDS011;52144;48.040;-1.594;2022-11-20T00:00:52;6.63;;;3.25;;
46210;SDS011;52144;48.040;-1.594;2022-11-20T00:03:20;6.60;;;3.85;;
46210;SDS011;52144;48.040;-1.594;2022-11-20T00:05:48;7.07;;;3.03;;
46210;SDS011;52144;48.040;-1.594;2022-11-20T00:08:17;4.65;;;3.15;;
46210;SDS011;52144;48.040;-1.594;2022-11-20T00:10:45;6.55;;;2.42;;
46210;SDS011;52144;48.040;-1.594;2022-11-20T00:13:13;7.07;;;3.33;;
46210;SDS011;52144;48.040;-1.594;2022-11-20T00:15:41;3.35;;;2.03;;
46210;SDS011;52144;48.040;-1.594;2022-11-20T00:18:08;4.90;;;3.50;;
46210;SDS011;52144;48.040;-1.594;2022-11-20T00:20:36;4.40;;;2.40;;
46210;SDS011;52144;48.040;-1.594;2022-11-20T00:23:04;6.20;;;3.03;;
46210;SDS011;52144;48.040;-1.594;2022-11-20T00:25:34;7.03;;;2.92;;
46210;SDS011;52144;48.040;-1.594;2022-11-20T00:28:02;3.58;;;2.10;;
46210;SDS011;52144;48.040;-1.594;2022-11-20T00:30:30;4.75;;;2.35;;
46210;SDS011;52144;48.040;-1.594;2022-11-20T00:32:58;5.28;;;2.72;;
46210;SDS011;52144;48.040;-1.594;2022-11-20T00:35:26;4.40;;;1.85;;
46210;SDS011;52144;48.040;-1.594;2022-11-20T00:37:54;4.00;;;1.95;;
46210;SDS011;52144;48.040;-1.594;2022-11-20T00:40:21;4.50;;;2.22;;
46210;SDS011;52144;48.040;-1.594;2022-11-20T00:42:50;6.70;;;2.08;;
46210;SDS011;52144;48.040;-1.594;2022-11-20T00:45:18;6.95;;;2.08;;
46210;SDS011;52144;48.040;-1.594;2022-11-20T00:47:46;5.15;;;2.50;;
46210;SDS011;52144;48.040;-1.594;2022-11-20T00:50:14;3.47;;;2.40;;
46210;SDS011;52144;48.040;-1.594;2022-11-20T00:52:42;4.50;;;2.72;;
46210;SDS011;52144;48.040;-1.594;2022-11-20T00:55:09;8.98;;;3.10;;
46210;SDS011;52144;48.040;-1.594;2022-11-20T00:57:37;3.80;;;2.13;;
46210;SDS011;52144;48.040;-1.594;2022-11-20T01:00:07;5.25;;;2.22;;
46210;SDS011;52144;48.040;-1.594;2022-11-20T01:02:36;5.72;;;2.65;;
46210;SDS011;52144;48.040;-1.594;2022-11-20T01:05:03;3.40;;;2.40;;
46210;SDS011;52144;48.040;-1.594;2022-11-20T01:07:31;3.05;;;2.35;;
46210;SDS011;52144;48.040;-1.594;2022-11-20T01:09:59;3.50;;;1.85;;
46210;SDS011;52144;48.040;-1.594;2022-11-20T01:12:27;4.03;;;2.33;;
46210;SDS011;52144;48.040;-1.594;2022-11-20T01:14:55;6.93;;;1.90;;
46210;SDS011;52144;48.040;-1.594;2022-11-20T01:17:24;3.13;;;2.00;;
46210;SDS011;52144;48.040;-1.594;2022-11-20T01:19:52;2.72;;;2.28;;
46210;SDS011;52144;48.040;-1.594;2022-11-20T01:22:20;14.50;;;2.72;;
46210;SDS011;52144;48.040;-1.594;2022-11-20T01:24:47;4.55;;;2.25;;
46210;SDS011;52144;48.040;-1.594;2022-11-20T01:27:15;3.22;;;1.90;;
46210;SDS011;52144;48.040;-1.594;2022-11-20T01:29:43;4.55;;;2.17;;
46210;SDS011;52144;48.040;-1.594;2022-11-20T01:32:11;2.28;;;1.58;;
46210;SDS011;52144;48.040;-1.594;2022-11-20T01:34:40;7.47;;;2.22;;
46210;SDS011;52144;48.040;-1.594;2022-11-20T01:37:07;5.07;;;2.17;;
46210;SDS011;52144;48.040;-1.594;2022-11-20T01:39:35;3.38;;;2.40;;
46210;SDS011;52144;48.040;-1.594;2022-11-20T01:42:03;5.05;;;3.10;;
46210;SDS011;52144;48.040;-1.594;2022-11-20T01:44:51;5.75;;;2.28;;
46210;SDS011;52144;48.040;-1.594;2022-11-20T01:47:21;5.65;;;2.35;;
46210;SDS011;52144;48.040;-1.594;2022-11-20T01:49:56;4.15;;;2.72;;
46210;SDS011;52144;48.040;-1.594;2022-11-20T01:52:29;3.40;;;1.15;;
46210;SDS011;52144;48.040;-1.594;2022-11-20T01:55:03;3.70;;;2.30;;
46210;SDS011;52144;48.040;-1.594;2022-11-20T01:57:34;11.00;;;2.47;;
46210;SDS011;52144;48.040;-1.594;2022-11-20T02:00:04;1.60;;;1.50;;
46210;SDS011;52144;48.040;-1.594;2022-11-20T02:02:34;3.25;;;2.30;;
46210;SDS011;52144;48.040;-1.594;2022-11-20T02:05:08;4.00;;;1.95;;
46210;SDS011;52144;48.040;-1.594;2022-11-20T02:07:42;2.40;;;1.88;;
46210;SDS011;52144;48.040;-1.594;2022-11-20T02:10:11;2.40;;;1.63;;
46210;SDS011;52144;48.040;-1.594;2022-11-20T02:12:39;4.75;;;2.30;;
46210;SDS011;52144;48.040;-1.594;2022-11-20T02:15:24;3.92;;;1.80;;
46210;SDS011;52144;48.040;-1.594;2022-11-20T02:17:55;2.55;;;1.65;;
46210;SDS011;52144;48.040;-1.594;2022-11-20T02:20:25;2.17;;;1.67;;
46210;SDS011;52144;48.040;-1.594;2022-11-20T02:22:54;3.22;;;1.67;;
46210;SDS011;52144;48.040;-1.594;2022-11-20T02:25:26;5.15;;;1.38;;
46210;SDS011;52144;48.040;-1.594;2022-11-20T02:27:55;3.85;;;2.10;;
46210;SDS011;52144;48.040;-1.594;2022-11-20T02:30:23;3.15;;;1.60;;
46210;SDS011;52144;48.040;-1.594;2022-11-20T02:32:51;1.60;;;1.13;;
46210;SDS011;52144;48.040;-1.594;2022-11-20T02:35:41;4.43;;;2.15;;
46210;SDS011;52144;48.040;-1.594;2022-11-20T02:38:11;4.60;;;1.90;;
46210;SDS011;52144;48.040;-1.594;2022-11-20T02:40:41;2.75;;;1.85;;
46210;SDS011;52144;48.040;-1.594;2022-11-20T02:43:09;2.58;;;1.90;;
46210;SDS011;52144;48.040;-1.594;2022-11-20T02:45:38;2.70;;;2.42;;
46210;SDS011;52144;48.040;-1.594;2022-11-20T02:48:06;2.35;;;1.52;;
46210;SDS011;52144;48.040;-1.594;2022-11-20T02:50:36;4.63;;;1.60;;
46210;SDS011;52144;48.040;-1.594;2022-11-20T02:53:05;3.63;;;2.35;;
46210;SDS011;52144;48.040;-1.594;2022-11-20T02:55:32;2.00;;;1.65;;
46210;SDS011;52144;48.040;-1.594;2022-11-20T02:58:02;9.85;;;2.47;;
46210;SDS011;52144;48.040;-1.594;2022-11-20T03:00:30;2.35;;;1.60;;
46210;SDS011;52144;48.040;-1.594;2022-11-20T03:02:58;4.05;;;1.80;;
46210;SDS011;52144;48.040;-1.594;2022-11-20T03:05:25;2.13;;;1.52;;
46210;SDS011;52144;48.040;-1.594;2022-11-20T03:07:53;5.60;;;1.65;;
46210;SDS011;52144;48.040;-1.594;2022-11-20T03:10:21;5.25;;;1.85;;
46210;SDS011;52144;48.040;-1.594;2022-11-20T03:12:52;2.33;;;1.52;;
46210;SDS011;52144;48.040;-1.594;2022-11-20T03:15:22;1.92;;;1.73;;
46210;SDS011;52144;48.040;-1.594;2022-11-20T03:17:52;3.60;;;2.00;;
46210;SDS011;52144;48.040;-1.594;2022-11-20T03:20:20;1.92;;;1.70;;
46210;SDS011;52144;48.040;-1.594;2022-11-20T03:22:48;3.25;;;1.92;;
46210;SDS011;52144;48.040;-1.594;2022-11-20T03:25:16;2.80;;;1.63;;
46210;SDS011;52144;48.040;-1.594;2022-11-20T03:27:44;2.20;;;1.60;;
46210;SDS011;52144;48.040;-1.594;2022-11-20T03:30:12;6.03;;;1.27;;
46210;SDS011;52144;48.040;-1.594;2022-11-20T03:32:42;1.83;;;1.67;;
46210;SDS011;52144;48.040;-1.594;2022-11-20T03:35:10;5.80;;;2.05;;
46210;SDS011;52144;48.040;-1.594;2022-11-20T03:37:37;3.30;;;1.88;;
46210;SDS011;52144;48.040;-1.594;2022-11-20T03:40:06;1.85;;;1.50;;
46210;SDS011;52144;48.040;-1.594;2022-11-20T03:42:34;4.65;;;2.67;;
46210;SDS011;52144;48.040;-1.594;2022-11-20T03:45:14;4.05;;;1.80;;
46210;SDS011;52144;48.040;-1.594;2022-11-20T03:47:45;5.43;;;1.90;;
46210;SDS011;52144;48.040;-1.594;2022-11-20T03:50:13;1.90;;;1.70;;
46210;SDS011;52144;48.040;-1.594;2022-11-20T03:52:42;2.75;;;1.98;;
46210;SDS011;52144;48.040;-1.594;2022-11-20T03:55:09;3.53;;;1.55;;
46210;SDS011;52144;48.040;-1.594;2022-11-20T03:57:37;3.60;;;2.53;;
46210;SDS011;52144;48.040;-1.594;2022-11-20T04:00:05;2.80;;;2.03;;
46210;SDS011;52144;48.040;-1.594;2022-11-20T04:02:34;5.32;;;2.22;;
46210;SDS011;52144;48.040;-1.594;2022-11-20T04:05:03;6.30;;;1.63;;
46210;SDS011;52144;48.040;-1.594;2022-11-20T04:07:33;3.60;;;1.95;;
46210;SDS011;52144;48.040;-1.594;2022-11-20T04:10:01;2.47;;;1.77;;
46210;SDS011;52144;48.040;-1.594;2022-11-20T04:12:31;6.22;;;3.13;;
46210;SDS011;52144;48.040;-1.594;2022-11-20T04:14:59;8.18;;;2.88;;
46210;SDS011;52144;48.040;-1.594;2022-11-20T04:17:27;6.68;;;2.28;;
46210;SDS011;52144;48.040;-1.594;2022-11-20T04:19:55;8.23;;;2.80;;
46210;SDS011;52144;48.040;-1.594;2022-11-20T04:22:24;3.63;;;2.58;;
46210;SDS011;52144;48.040;-1.594;2022-11-20T04:24:52;3.25;;;2.58;;
46210;SDS011;52144;48.040;-1.594;2022-11-20T04:27:20;3.22;;;2.58;;
46210;SDS011;52144;48.040;-1.594;2022-11-20T04:29:48;5.68;;;2.47;;
46210;SDS011;52144;48.040;-1.594;2022-11-20T04:32:15;5.32;;;2.70;;
46210;SDS011;52144;48.040;-1.594;2022-11-20T04:34:43;5.18;;;2.65;;
46210;SDS011;52144;48.040;-1.594;2022-11-20T04:37:11;3.83;;;2.75;;
46210;SDS011;52144;48.040;-1.594;2022-11-20T04:39:40;2.58;;;2.35;;
46210;SDS011;52144;48.040;-1.594;2022-11-20T04:42:08;3.75;;;1.83;;
46210;SDS011;52144;48.040;-1.594;2022-11-20T04:44:55;2.90;;;2.53;;
46210;SDS011;52144;48.040;-1.594;2022-11-20T04:47:24;4.78;;;2.17;;
46210;SDS011;52144;48.040;-1.594;2022-11-20T04:49:51;2.80;;;2.47;;
46210;SDS011;52144;48.040;-1.594;2022-11-20T04:52:19;4.15;;;2.25;;
46210;SDS011;52144;48.040;-1.594;2022-11-20T04:54:48;3.33;;;2.60;;
46210;SDS011;52144;48.040;-1.594;2022-11-20T04:57:19;4.53;;;2.60;;
46210;SDS011;52144;48.040;-1.594;2022-11-20T04:59:46;3.92;;;2.47;;
46210;SDS011;52144;48.040;-1.594;2022-11-20T05:02:14;3.65;;;2.13;;
46210;SDS011;52144;48.040;-1.594;2022-11-20T05:04:42;3.17;;;1.98;;
46210;SDS011;52144;48.040;-1.594;2022-11-20T05:07:10;3.42;;;1.98;;
46210;SDS011;52144;48.040;-1.594;2022-11-20T05:09:38;4.95;;;2.30;;
46210;SDS011;52144;48.040;-1.594;2022-11-20T05:12:08;3.22;;;2.08;;
46210;SDS011;52144;48.040;-1.594;2022-11-20T05:14:36;4.05;;;2.35;;
46210;SDS011;52144;48.040;-1.594;2022-11-20T05:17:04;7.13;;;2.85;;
46210;SDS011;52144;48.040;-1.594;2022-11-20T05:19:31;7.07;;;2.13;;
46210;SDS011;52144;48.040;-1.594;2022-11-20T05:21:59;3.20;;;1.75;;
46210;SDS011;52144;48.040;-1.594;2022-11-20T05:24:27;3.00;;;1.92;;
46210;SDS011;52144;48.040;-1.594;2022-11-20T05:26:55;2.45;;;1.73;;
46210;SDS011;52144;48.040;-1.594;2022-11-20T05:29:24;4.20;;;1.70;;
46210;SDS011;52144;48.040;-1.594;2022-11-20T05:31:51;3.08;;;2.05;;
46210;SDS011;52144;48.040;-1.594;2022-11-20T05:34:19;3.28;;;2.17;;
46210;SDS011;52144;48.040;-1.594;2022-11-20T05:36:47;3.20;;;1.70;;
46210;SDS011;52144;48.040;-1.594;2022-11-20T05:39:15;2.20;;;1.50;;
46210;SDS011;52144;48.040;-1.594;2022-11-20T05:41:42;1.48;;;1.38;;
46210;SDS011;52144;48.040;-1.594;2022-11-20T05:44:10;5.10;;;1.50;;
46210;SDS011;52144;48.040;-1.594;2022-11-20T05:46:40;2.28;;;1.13;;
46210;SDS011;52144;48.040;-1.594;2022-11-20T05:49:07;1.45;;;1.23;;
46210;SDS011;52144;48.040;-1.594;2022-11-20T05:51:35;3.35;;;2.25;;
46210;SDS011;52144;48.040;-1.594;2022-11-20T05:54:03;1.92;;;1.50;;
46210;SDS011;52144;48.040;-1.594;2022-11-20T05:56:31;5.78;;;1.85;;
46210;SDS011;52144;48.040;-1.594;2022-11-20T05:58:59;1.83;;;1.60;;
46210;SDS011;52144;48.040;-1.594;2022-11-20T06:01:26;2.35;;;1.63;;
46210;SDS011;52144;48.040;-1.594;2022-11-20T06:03:56;1.95;;;1.50;;
46210;SDS011;52144;48.040;-1.594;2022-11-20T06:06:23;10.98;;;2.80;;
46210;SDS011;52144;48.040;-1.594;2022-11-20T06:08:52;2.92;;;1.13;;
46210;SDS011;52144;48.040;-1.594;2022-11-20T06:11:19;1.73;;;0.90;;
46210;SDS011;52144;48.040;-1.594;2022-11-20T06:13:47;1.73;;;1.63;;
46210;SDS011;52144;48.040;-1.594;2022-11-20T06:16:16;1.02;;;0.95;;
46210;SDS011;52144;48.040;-1.594;2022-11-20T06:18:46;1.58;;;1.13;;
46210;SDS011;52144;48.040;-1.594;2022-11-20T06:21:17;6.10;;;0.95;;
46210;SDS011;52144;48.040;-1.594;2022-11-20T06:23:46;0.98;;;0.98;;
46210;SDS011;52144;48.040;-1.594;2022-11-20T06:26:17;1.23;;;1.05;;
46210;SDS011;52144;48.040;-1.594;2022-11-20T06:28:46;1.95;;;1.35;;
46210;SDS011;52144;48.040;-1.594;2022-11-20T06:31:15;1.85;;;1.50;;
46210;SDS011;52144;48.040;-1.594;2022-11-20T06:33:45;1.50;;;1.40;;
46210;SDS011;52144;48.040;-1.594;2022-11-20T06:36:14;1.65;;;1.20;;
46210;SDS011;52144;48.040;-1.594;2022-11-20T06:38:44;1.50;;;1.40;;
46210;SDS011;52144;48.040;-1.594;2022-11-20T06:41:12;0.82;;;0.82;;
46210;SDS011;52144;48.040;-1.594;2022-11-20T06:43:42;1.85;;;1.63;;
46210;SDS011;52144;48.040;-1.594;2022-11-20T06:46:10;12.18;;;2.30;;
46210;SDS011;52144;48.040;-1.594;2022-11-20T06:48:39;0.90;;;0.90;;
46210;SDS011;52144;48.040;-1.594;2022-11-20T06:51:07;0.82;;;0.82;;
46210;SDS011;52144;48.040;-1.594;2022-11-20T06:53:36;0.70;;;0.70;;
46210;SDS011;52144;48.040;-1.594;2022-11-20T06:56:05;1.08;;;0.90;;
46210;SDS011;52144;48.040;-1.594;2022-11-20T06:58:34;0.80;;;0.80;;
46210;SDS011;52144;48.040;-1.594;2022-11-20T07:01:03;0.60;;;0.60;;
46210;SDS011;52144;48.040;-1.594;2022-11-20T07:03:33;0.63;;;0.63;;
46210;SDS011;52144;48.040;-1.594;2022-11-20T07:06:01;0.90;;;0.90;;
46210;SDS011;52144;48.040;-1.594;2022-11-20T07:08:30;1.42;;;0.52;;
46210;SDS011;52144;48.040;-1.594;2022-11-20T07:11:00;0.55;;;0.55;;
46210;SDS011;52144;48.040;-1.594;2022-11-20T07:13:29;0.80;;;0.80;;
46210;SDS011;52144;48.040;-1.594;2022-11-20T07:15:58;0.70;;;0.70;;
46210;SDS011;52144;48.040;-1.594;2022-11-20T07:18:27;0.70;;;0.65;;
46210;SDS011;52144;48.040;-1.594;2022-11-20T07:20:54;0.70;;;0.70;;
46210;SDS011;52144;48.040;-1.594;2022-11-20T07:23:22;0.93;;;0.93;;
46210;SDS011;52144;48.040;-1.594;2022-11-20T07:25:50;0.90;;;0.75;;
46210;SDS011;52144;48.040;-1.594;2022-11-20T07:28:19;0.70;;;0.70;;
46210;SDS011;52144;48.040;-1.594;2022-11-20T07:30:49;1.38;;;1.15;;
46210;SDS011;52144;48.040;-1.594;2022-11-20T07:33:17;1.20;;;1.10;;
46210;SDS011;52144;48.040;-1.594;2022-11-20T07:35:45;1.85;;;1.60;;
46210;SDS011;52144;48.040;-1.594;2022-11-20T07:38:13;2.10;;;1.45;;
46210;SDS011;52144;48.040;-1.594;2022-11-20T07:40:41;2.50;;;1.33;;
46210;SDS011;52144;48.040;-1.594;2022-11-20T07:43:09;1.60;;;1.23;;
46210;SDS011;52144;48.040;-1.594;2022-11-20T07:45:38;1.25;;;1.13;;
46210;SDS011;52144;48.040;-1.594;2022-11-20T07:48:06;0.70;;;0.60;;
46210;SDS011;52144;48.040;-1.594;2022-11-20T07:50:34;1.60;;;1.27;;
46210;SDS011;52144;48.040;-1.594;2022-11-20T07:53:02;1.95;;;1.48;;
46210;SDS011;52144;48.040;-1.594;2022-11-20T07:55:30;1.85;;;1.65;;
46210;SDS011;52144;48.040;-1.594;2022-11-20T07:57:58;0.90;;;0.90;;
46210;SDS011;52144;48.040;-1.594;2022-11-20T08:00:26;1.33;;;1.23;;
46210;SDS011;52144;48.040;-1.594;2022-11-20T08:02:55;2.13;;;1.10;;
46210;SDS011;52144;48.040;-1.594;2022-11-20T08:05:23;1.08;;;1.08;;
46210;SDS011;52144;48.040;-1.594;2022-11-20T08:07:51;1.23;;;1.13;;
46210;SDS011;52144;48.040;-1.594;2022-11-20T08:10:19;1.63;;;1.20;;
46210;SDS011;52144;48.040;-1.594;2022-11-20T08:12:47;1.02;;;0.95;;
46210;SDS011;52144;48.040;-1.594;2022-11-20T08:15:34;1.25;;;1.00;;
46210;SDS011;52144;48.040;-1.594;2022-11-20T08:18:04;2.55;;;1.00;;
46210;SDS011;52144;48.040;-1.594;2022-11-20T08:20:53;1.40;;;1.00;;
46210;SDS011;52144;48.040;-1.594;2022-11-20T08:23:22;1.73;;;1.20;;
46210;SDS011;52144;48.040;-1.594;2022-11-20T08:25:50;1.67;;;1.52;;
46210;SDS011;52144;48.040;-1.594;2022-11-20T08:28:18;1.90;;;1.63;;
46210;SDS011;52144;48.040;-1.594;2022-11-20T08:30:47;2.35;;;1.40;;
46210;SDS011;52144;48.040;-1.594;2022-11-20T08:33:18;1.73;;;1.63;;
46210;SDS011;52144;48.040;-1.594;2022-11-20T08:35:45;3.80;;;2.05;;
46210;SDS011;52144;48.040;-1.594;2022-11-20T08:38:13;3.88;;;3.13;;
46210;SDS011;52144;48.040;-1.594;2022-11-20T08:40:41;6.38;;;1.95;;
46210;SDS011;52144;48.040;-1.594;2022-11-20T08:43:30;2.00;;;1.45;;
46210;SDS011;52144;48.040;-1.594;2022-11-20T08:45:58;2.67;;;1.70;;
46210;SDS011;52144;48.040;-1.594;2022-11-20T08:48:27;4.38;;;1.67;;
46210;SDS011;52144;48.040;-1.594;2022-11-20T08:50:57;4.70;;;2.15;;
46210;SDS011;52144;48.040;-1.594;2022-11-20T08:53:25;3.80;;;2.55;;
46210;SDS011;52144;48.040;-1.594;2022-11-20T08:55:53;3.75;;;2.60;;
46210;SDS011;52144;48.040;-1.594;2022-11-20T08:58:20;5.55;;;2.58;;
46210;SDS011;52144;48.040;-1.594;2022-11-20T09:00:49;3.55;;;2.15;;
46210;SDS011;52144;48.040;-1.594;2022-11-20T09:03:16;2.63;;;1.80;;
46210;SDS011;52144;48.040;-1.594;2022-11-20T09:05:46;2.10;;;1.42;;
46210;SDS011;52144;48.040;-1.594;2022-11-20T09:08:13;2.42;;;1.52;;
46210;SDS011;52144;48.040;-1.594;2022-11-20T09:10:41;6.80;;;1.77;;
46210;SDS011;52144;48.040;-1.594;2022-11-20T09:13:09;2.78;;;1.98;;
46210;SDS011;52144;48.040;-1.594;2022-11-20T09:15:38;7.22;;;3.38;;
46210;SDS011;52144;48.040;-1.594;2022-11-20T09:18:08;14.05;;;3.95;;
46210;SDS011;52144;48.040;-1.594;2022-11-20T09:20:36;13.55;;;3.10;;
46210;SDS011;52144;48.040;-1.594;2022-11-20T09:23:05;9.02;;;3.28;;
46210;SDS011;52144;48.040;-1.594;2022-11-20T09:25:33;10.05;;;2.65;;
46210;SDS011;52144;48.040;-1.594;2022-11-20T09:28:01;6.97;;;3.85;;
46210;SDS011;52144;48.040;-1.594;2022-11-20T09:30:29;9.32;;;2.92;;
46210;SDS011;52144;48.040;-1.594;2022-11-20T09:32:57;7.10;;;2.67;;
46210;SDS011;52144;48.040;-1.594;2022-11-20T09:35:24;8.93;;;3.03;;
46210;SDS011;52144;48.040;-1.594;2022-11-20T09:37:52;11.85;;;3.42;;
46210;SDS011;52144;48.040;-1.594;2022-11-20T09:40:22;5.70;;;1.83;;
46210;SDS011;52144;48.040;-1.594;2022-11-20T09:42:54;4.30;;;2.60;;
46210;SDS011;52144;48.040;-1.594;2022-11-20T09:45:29;12.90;;;4.20;;
46210;SDS011;52144;48.040;-1.594;2022-11-20T09:48:14;24.55;;;4.05;;
46210;SDS011;52144;48.040;-1.594;2022-11-20T09:50:52;7.28;;;2.08;;
46210;SDS011;52144;48.040;-1.594;2022-11-20T09:53:29;12.85;;;2.13;;
46210;SDS011;52144;48.040;-1.594;2022-11-20T09:56:03;13.20;;;3.63;;
46210;SDS011;52144;48.040;-1.594;2022-11-20T09:58:33;15.48;;;4.60;;
46210;SDS011;52144;48.040;-1.594;2022-11-20T10:01:09;14.25;;;3.45;;
46210;SDS011;52144;48.040;-1.594;2022-11-20T10:03:42;11.52;;;3.45;;
46210;SDS011;52144;48.040;-1.594;2022-11-20T10:06:18;18.45;;;3.95;;
46210;SDS011;52144;48.040;-1.594;2022-11-20T10:08:54;11.20;;;2.35;;
46210;SDS011;52144;48.040;-1.594;2022-11-20T10:11:29;17.38;;;4.15;;
46210;SDS011;52144;48.040;-1.594;2022-11-20T10:14:10;19.25;;;3.20;;
46210;SDS011;52144;48.040;-1.594;2022-11-20T10:16:48;21.42;;;4.43;;
46210;SDS011;52144;48.040;-1.594;2022-11-20T10:19:29;10.88;;;3.88;;
46210;SDS011;52144;48.040;-1.594;2022-11-20T10:22:11;17.77;;;3.40;;
46210;SDS011;52144;48.040;-1.594;2022-11-20T10:24:52;9.75;;;2.72;;
46210;SDS011;52144;48.040;-1.594;2022-11-20T10:27:30;18.45;;;3.88;;
46210;SDS011;52144;48.040;-1.594;2022-11-20T10:30:08;9.93;;;2.65;;
46210;SDS011;52144;48.040;-1.594;2022-11-20T10:32:39;13.60;;;3.67;;
46210;SDS011;52144;48.040;-1.594;2022-11-20T10:35:14;28.75;;;4.88;;
46210;SDS011;52144;48.040;-1.594;2022-11-20T10:37:48;5.95;;;2.55;;
46210;SDS011;52144;48.040;-1.594;2022-11-20T10:40:22;19.08;;;4.65;;
46210;SDS011;52144;48.040;-1.594;2022-11-20T10:42:57;13.25;;;3.22;;
46210;SDS011;52144;48.040;-1.594;2022-11-20T10:45:33;11.07;;;3.85;;
46210;SDS011;52144;48.040;-1.594;2022-11-20T10:48:10;15.40;;;2.28;;
46210;SDS011;52144;48.040;-1.594;2022-11-20T10:50:46;13.18;;;1.92;;
46210;SDS011;52144;48.040;-1.594;2022-11-20T10:53:26;18.65;;;4.22;;
46210;SDS011;52144;48.040;-1.594;2022-11-20T10:56:05;21.95;;;3.00;;
46210;SDS011;52144;48.040;-1.594;2022-11-20T11:01:13;7.88;;;2.85;;
46210;SDS011;52144;48.040;-1.594;2022-11-20T11:03:43;22.63;;;3.15;;
46210;SDS011;52144;48.040;-1.594;2022-11-20T11:06:12;14.85;;;3.20;;
46210;SDS011;52144;48.040;-1.594;2022-11-20T11:08:48;17.38;;;3.80;;
46210;SDS011;52144;48.040;-1.594;2022-11-20T11:11:21;15.63;;;2.70;;
46210;SDS011;52144;48.040;-1.594;2022-11-20T11:13:52;30.38;;;5.25;;
46210;SDS011;52144;48.040;-1.594;2022-11-20T11:16:20;15.95;;;4.18;;
46210;SDS011;52144;48.040;-1.594;2022-11-20T11:18:50;24.67;;;4.15;;
46210;SDS011;52144;48.040;-1.594;2022-11-20T11:21:21;20.25;;;6.15;;
46210;SDS011;52144;48.040;-1.594;2022-11-20T11:23:57;29.88;;;4.45;;
46210;SDS011;52144;48.040;-1.594;2022-11-20T11:26:51;19.38;;;4.35;;
46210;SDS011;52144;48.040;-1.594;2022-11-20T11:29:23;8.57;;;2.38;;
46210;SDS011;52144;48.040;-1.594;2022-11-20T11:32:02;11.07;;;2.83;;
46210;SDS011;52144;48.040;-1.594;2022-11-20T11:34:31;17.95;;;3.40;;
46210;SDS011;52144;48.040;-1.594;2022-11-20T11:37:00;17.35;;;3.75;;
46210;SDS011;52144;48.040;-1.594;2022-11-20T11:39:29;12.90;;;2.90;;
46210;SDS011;52144;48.040;-1.594;2022-11-20T11:42:00;21.25;;;3.97;;
46210;SDS011;52144;48.040;-1.594;2022-11-20T11:44:31;13.98;;;3.17;;
46210;SDS011;52144;48.040;-1.594;2022-11-20T11:47:21;22.77;;;3.42;;
46210;SDS011;52144;48.040;-1.594;2022-11-20T11:50:00;12.83;;;3.37;;
46210;SDS011;52144;48.040;-1.594;2022-11-20T11:52:30;7.07;;;1.90;;
46210;SDS011;52144;48.040;-1.594;2022-11-20T11:57:37;14.80;;;2.78;;
46210;SDS011;52144;48.040;-1.594;2022-11-20T12:00:13;13.93;;;3.33;;
46210;SDS011;52144;48.040;-1.594;2022-11-20T12:02:46;15.65;;;2.58;;
46210;SDS011;52144;48.040;-1.594;2022-11-20T12:05:21;12.65;;;3.38;;
46210;SDS011;52144;48.040;-1.594;2022-11-20T12:07:52;13.27;;;2.60;;
46210;SDS011;52144;48.040;-1.594;2022-11-20T12:10:29;8.40;;;2.38;;
46210;SDS011;52144;48.040;-1.594;2022-11-20T12:13:11;5.50;;;2.38;;
46210;SDS011;52144;48.040;-1.594;2022-11-20T12:15:49;16.08;;;2.95;;
46210;SDS011;52144;48.040;-1.594;2022-11-20T12:18:17;11.80;;;2.33;;
46210;SDS011;52144;48.040;-1.594;2022-11-20T12:20:49;7.97;;;2.28;;
46210;SDS011;52144;48.040;-1.594;2022-11-20T12:23:27;9.85;;;2.47;;
46210;SDS011;52144;48.040;-1.594;2022-11-20T12:26:04;5.97;;;2.15;;
46210;SDS011;52144;48.040;-1.594;2022-11-20T12:28:49;11.93;;;3.30;;
46210;SDS011;52144;48.040;-1.594;2022-11-20T12:31:34;8.23;;;3.33;;
46210;SDS011;52144;48.040;-1.594;2022-11-20T12:34:17;7.50;;;3.13;;
46210;SDS011;52144;48.040;-1.594;2022-11-20T12:37:00;4.25;;;1.92;;
46210;SDS011;52144;48.040;-1.594;2022-11-20T12:39:34;11.73;;;2.78;;
46210;SDS011;52144;48.040;-1.594;2022-11-20T12:42:10;5.40;;;1.55;;
46210;SDS011;52144;48.040;-1.594;2022-11-20T12:45:14;15.65;;;3.80;;
46210;SDS011;52144;48.040;-1.594;2022-11-20T12:48:11;7.38;;;1.98;;
46210;SDS011;52144;48.040;-1.594;2022-11-20T12:50:59;27.42;;;3.17;;
46210;SDS011;52144;48.040;-1.594;2022-11-20T12:53:47;7.55;;;1.67;;
46210;SDS011;52144;48.040;-1.594;2022-11-20T12:56:28;6.47;;;2.25;;
46210;SDS011;52144;48.040;-1.594;2022-11-20T12:59:09;14.02;;;1.90;;
46210;SDS011;52144;48.040;-1.594;2022-11-20T13:01:51;14.48;;;4.25;;
46210;SDS011;52144;48.040;-1.594;2022-11-20T13:04:32;8.02;;;2.13;;
46210;SDS011;52144;48.040;-1.594;2022-11-20T13:07:12;14.25;;;2.50;;
46210;SDS011;52144;48.040;-1.594;2022-11-20T13:09:42;9.13;;;2.83;;
46210;SDS011;52144;48.040;-1.594;2022-11-20T13:12:13;10.43;;;2.72;;
46210;SDS011;52144;48.040;-1.594;2022-11-20T13:14:48;8.23;;;2.75;;
46210;SDS011;52144;48.040;-1.594;2022-11-20T13:17:22;9.48;;;2.53;;
46210;SDS011;52144;48.040;-1.594;2022-11-20T13:19:56;9.48;;;2.38;;
46210;SDS011;52144;48.040;-1.594;2022-11-20T13:22:26;18.45;;;1.95;;
46210;SDS011;52144;48.040;-1.594;2022-11-20T13:24:55;6.80;;;2.22;;
46210;SDS011;52144;48.040;-1.594;2022-11-20T13:27:23;18.08;;;3.88;;
46210;SDS011;52144;48.040;-1.594;2022-11-20T13:30:02;6.68;;;2.00;;
46210;SDS011;52144;48.040;-1.594;2022-11-20T13:32:47;10.82;;;2.72;;
46210;SDS011;52144;48.040;-1.594;2022-11-20T13:35:26;14.55;;;2.40;;
46210;SDS011;52144;48.040;-1.594;2022-11-20T13:37:59;9.20;;;1.83;;
46210;SDS011;52144;48.040;-1.594;2022-11-20T13:40:33;20.60;;;3.67;;
46210;SDS011;52144;48.040;-1.594;2022-11-20T13:43:04;14.77;;;2.65;;
46210;SDS011;52144;48.040;-1.594;2022-11-20T13:45:38;11.95;;;3.08;;
46210;SDS011;52144;48.040;-1.594;2022-11-20T13:48:16;9.88;;;1.95;;
46210;SDS011;52144;48.040;-1.594;2022-11-20T13:50:54;6.75;;;1.70;;
46210;SDS011;52144;48.040;-1.594;2022-11-20T13:53:32;7.95;;;1.83;;
46210;SDS011;52144;48.040;-1.594;2022-11-20T13:56:15;9.60;;;2.05;;
46210;SDS011;52144;48.040;-1.594;2022-11-20T13:58:53;9.57;;;2.20;;
46210;SDS011;52144;48.040;-1.594;2022-11-20T14:01:30;7.93;;;2.35;;
46210;SDS011;52144;48.040;-1.594;2022-11-20T14:04:05;10.45;;;2.15;;
46210;SDS011;52144;48.040;-1.594;2022-11-20T14:06:40;8.25;;;2.70;;
46210;SDS011;52144;48.040;-1.594;2022-11-20T14:09:11;5.43;;;1.92;;
46210;SDS011;52144;48.040;-1.594;2022-11-20T14:11:45;12.25;;;2.63;;
46210;SDS011;52144;48.040;-1.594;2022-11-20T14:14:15;10.82;;;2.45;;
46210;SDS011;52144;48.040;-1.594;2022-11-20T14:16:44;10.50;;;3.40;;
46210;SDS011;52144;48.040;-1.594;2022-11-20T14:22:08;10.60;;;2.67;;
46210;SDS011;52144;48.040;-1.594;2022-11-20T14:24:38;17.98;;;4.40;;
46210;SDS011;52144;48.040;-1.594;2022-11-20T14:27:10;19.23;;;2.75;;
46210;SDS011;52144;48.040;-1.594;2022-11-20T14:29:40;12.20;;;2.42;;
46210;SDS011;52144;48.040;-1.594;2022-11-20T14:32:09;6.75;;;2.97;;
46210;SDS011;52144;48.040;-1.594;2022-11-20T14:34:37;17.85;;;3.38;;
46210;SDS011;52144;48.040;-1.594;2022-11-20T14:37:11;17.05;;;2.38;;
46210;SDS011;52144;48.040;-1.594;2022-11-20T14:39:43;12.55;;;3.03;;
46210;SDS011;52144;48.040;-1.594;2022-11-20T14:42:16;5.75;;;1.90;;
46210;SDS011;52144;48.040;-1.594;2022-11-20T14:44:45;6.95;;;1.98;;
46210;SDS011;52144;48.040;-1.594;2022-11-20T14:47:16;13.60;;;2.95;;
46210;SDS011;52144;48.040;-1.594;2022-11-20T14:49:46;9.55;;;2.45;;
46210;SDS011;52144;48.040;-1.594;2022-11-20T14:52:17;10.82;;;2.95;;
46210;SDS011;52144;48.040;-1.594;2022-11-20T14:54:47;12.55;;;2.30;;
46210;SDS011;52144;48.040;-1.594;2022-11-20T14:57:20;16.42;;;2.70;;
46210;SDS011;52144;48.040;-1.594;2022-11-20T14:59:50;12.82;;;3.13;;
46210;SDS011;52144;48.040;-1.594;2022-11-20T15:02:18;10.80;;;3.00;;